createdAt,value
2023-04-09T00:03:37.876Z,50.00
2023-04-09T00:07:44.599Z,44.27
2023-04-09T00:11:50.427Z,44.60
2023-04-09T00:15:56.129Z,43.57
2023-04-09T00:20:01.713Z,39.87
2023-04-09T00:24:07.349Z,46.77
2023-04-09T00:28:13.163Z,59.93
2023-04-09T00:32:18.676Z,44.57
2023-04-09T00:36:25.936Z,48.07
2023-04-09T00:40:32.686Z,52.90
2023-04-09T00:44:38.250Z,45.83
2023-04-09T00:48:43.957Z,53.20
2023-04-09T00:52:49.640Z,47.90
2023-04-09T00:56:56.747Z,56.43
2023-04-09T01:01:02.359Z,56.30
2023-04-09T01:05:08.545Z,67.50
2023-04-09T01:09:42.782Z,60.43
2023-04-09T01:14:06.320Z,48.10
2023-04-09T01:18:45.657Z,48.93
2023-04-09T01:23:37.797Z,46.33
2023-04-09T01:28:03.978Z,49.27
2023-04-09T01:32:10.897Z,43.80
2023-04-09T01:36:16.913Z,40.47
2023-04-09T01:40:22.786Z,45.57
2023-04-09T01:44:29.165Z,44.60
2023-04-09T01:48:35.216Z,46.00
2023-04-09T01:52:41.201Z,34.27
2023-04-09T01:56:48.513Z,38.30
2023-04-09T02:01:06.800Z,39.33
2023-04-09T02:05:15.730Z,28.47
2023-04-09T02:09:21.715Z,35.33
2023-04-09T02:13:29.254Z,34.10
2023-04-09T02:17:35.337Z,30.90
2023-04-09T02:21:40.910Z,35.93
2023-04-09T02:25:46.594Z,32.73
2023-04-09T02:29:52.083Z,43.47
2023-04-09T02:33:57.614Z,42.70
2023-04-09T02:38:03.539Z,39.43
2023-04-09T02:42:09.119Z,41.13
2023-04-09T02:46:14.651Z,40.30
2023-04-09T02:50:20.312Z,41.37
2023-04-09T02:54:25.788Z,53.97
2023-04-09T02:58:31.353Z,41.53
2023-04-09T03:02:37.181Z,39.13
2023-04-09T03:06:42.771Z,50.70
2023-04-09T03:10:48.430Z,42.90
2023-04-09T03:14:54.068Z,40.70
2023-04-09T03:18:59.505Z,38.30
2023-04-09T03:23:05.254Z,39.10
2023-04-09T03:27:10.822Z,39.00
2023-04-09T03:31:16.472Z,38.20
2023-04-09T03:35:22.162Z,37.33
2023-04-09T03:39:30.837Z,38.10
2023-04-09T03:43:36.425Z,32.37
2023-04-09T03:47:41.955Z,36.97
2023-04-09T03:51:47.687Z,29.17
2023-04-09T03:55:53.157Z,33.03
2023-04-09T03:59:59.818Z,36.00
2023-04-09T04:04:05.631Z,38.57
2023-04-09T04:08:11.408Z,42.13
2023-04-09T04:12:16.919Z,32.93
2023-04-09T04:16:22.779Z,31.03
2023-04-09T04:20:28.294Z,33.40
2023-04-09T04:24:33.789Z,33.20
2023-04-09T04:28:40.388Z,33.73
2023-04-09T04:32:46.031Z,45.07
2023-04-09T04:36:51.549Z,34.70
2023-04-09T04:40:57.061Z,44.00
2023-04-09T04:45:02.608Z,38.83
2023-04-09T04:49:08.218Z,34.37
2023-04-09T04:53:13.831Z,36.80
2023-04-09T04:57:19.378Z,38.97
2023-04-09T05:01:25.284Z,40.43
2023-04-09T05:05:31.081Z,38.90
2023-04-09T05:09:36.583Z,33.17
2023-04-09T05:13:42.134Z,34.00
2023-04-09T05:17:47.719Z,47.37
2023-04-09T05:21:53.323Z,36.07
2023-04-09T05:25:58.799Z,31.23
2023-04-09T05:30:04.642Z,32.10
2023-04-09T05:34:10.314Z,34.73
2023-04-09T05:38:15.817Z,36.67
2023-04-09T05:42:22.237Z,34.60
2023-04-09T05:46:29.013Z,37.30
2023-04-09T05:50:43.691Z,35.73
2023-04-09T05:54:56.885Z,35.53
2023-04-09T05:59:02.439Z,36.43
2023-04-09T06:03:09.668Z,27.90
2023-04-09T06:07:15.331Z,30.40
2023-04-09T06:11:22.922Z,26.17
2023-04-09T06:15:28.643Z,29.57
2023-04-09T06:19:34.275Z,36.60
2023-04-09T06:23:40.345Z,28.33
2023-04-09T06:27:46.034Z,26.70
2023-04-09T06:31:51.571Z,29.00
2023-04-09T06:35:57.225Z,29.13
2023-04-09T06:40:03.309Z,33.27
2023-04-09T06:44:08.997Z,23.97
2023-04-09T06:48:14.712Z,36.80
2023-04-09T06:52:20.301Z,26.70
2023-04-09T06:56:25.815Z,26.87
2023-04-09T07:00:31.712Z,29.00
2023-04-09T07:04:37.559Z,30.40
2023-04-09T07:08:43.212Z,28.57
2023-04-09T07:12:48.709Z,24.20
2023-04-09T07:16:54.254Z,27.07
2023-04-09T07:21:00.185Z,24.10
2023-04-09T07:25:06.494Z,25.37
2023-04-09T07:29:12.127Z,22.83
2023-04-09T07:33:17.643Z,25.60
2023-04-09T07:37:23.481Z,22.67
2023-04-09T07:41:29.023Z,28.53
2023-04-09T07:45:34.949Z,22.70
2023-04-09T07:49:40.875Z,22.07
2023-04-09T07:53:46.528Z,21.53
2023-04-09T07:57:52.005Z,21.37
2023-04-09T08:01:57.889Z,20.73
2023-04-09T08:06:03.813Z,22.90
2023-04-09T08:10:15.221Z,22.07
2023-04-09T08:14:21.389Z,22.30
2023-04-09T08:18:26.981Z,19.27
2023-04-09T08:22:32.662Z,23.00
2023-04-09T08:26:42.310Z,20.23
2023-04-09T08:30:48.479Z,22.03
2023-04-09T08:34:53.985Z,23.60
2023-04-09T08:39:00.613Z,18.70
2023-04-09T08:43:07.486Z,17.50
2023-04-09T08:47:13.682Z,17.47
2023-04-09T08:51:24.542Z,21.20
2023-04-09T08:55:31.299Z,19.00
2023-04-09T08:59:37.861Z,18.77
2023-04-09T09:04:05.459Z,17.97
2023-04-09T09:08:14.393Z,17.20
2023-04-09T09:12:38.232Z,15.00
2023-04-09T09:16:56.861Z,16.23
2023-04-09T09:21:13.374Z,14.47
2023-04-09T09:25:23.217Z,18.73
2023-04-09T09:29:28.802Z,14.20
2023-04-09T09:33:34.385Z,19.67
2023-04-09T09:37:39.860Z,16.03
2023-04-09T09:41:47.402Z,15.17
2023-04-09T09:45:54.045Z,23.97
2023-04-09T09:49:59.669Z,14.83
2023-04-09T09:54:09.247Z,12.10
2023-04-09T09:58:27.333Z,18.60
2023-04-09T10:02:44.403Z,14.90
2023-04-09T10:06:52.884Z,17.73
2023-04-09T10:10:59.149Z,16.20
2023-04-09T10:15:06.291Z,14.63
2023-04-09T10:19:14.692Z,15.00
2023-04-09T10:23:33.179Z,13.80
2023-04-09T10:27:38.892Z,15.57
2023-04-09T10:31:55.818Z,13.33
2023-04-09T10:36:12.135Z,12.57
2023-04-09T10:40:21.799Z,17.70
2023-04-09T10:44:31.915Z,12.40
2023-04-09T10:48:37.531Z,14.00
2023-04-09T10:52:44.365Z,11.87
2023-04-09T10:57:08.617Z,12.50
2023-04-09T11:01:22.728Z,10.17
2023-04-09T11:05:36.483Z,12.60
2023-04-09T11:09:42.272Z,13.10
2023-04-09T11:13:47.735Z,16.37
2023-04-09T11:17:53.567Z,20.80
2023-04-09T11:21:59.466Z,15.10
2023-04-09T11:26:05.363Z,27.47
2023-04-09T11:30:11.338Z,15.67
2023-04-09T11:34:17.558Z,16.03
2023-04-09T11:38:23.536Z,16.73
2023-04-09T11:42:32.058Z,14.83
2023-04-09T11:46:39.173Z,20.70
2023-04-09T11:50:45.819Z,26.33
2023-04-09T11:54:51.875Z,16.00
2023-04-09T11:58:57.541Z,16.67
2023-04-09T12:03:05.391Z,19.23
2023-04-09T12:07:11.619Z,19.43
2023-04-09T12:11:17.135Z,19.07
2023-04-09T12:15:26.126Z,18.43
2023-04-09T12:19:31.897Z,18.53
2023-04-09T12:23:37.552Z,17.87
2023-04-09T12:27:43.260Z,17.13
2023-04-09T12:31:48.890Z,23.37
2023-04-09T12:35:56.096Z,24.57
2023-04-09T12:40:01.835Z,22.73
2023-04-09T12:44:07.939Z,19.47
2023-04-09T12:48:16.520Z,27.33
2023-04-09T12:52:22.623Z,20.53
2023-04-09T12:56:29.826Z,20.33
2023-04-09T13:00:35.542Z,25.27
2023-04-09T13:04:41.411Z,25.20
2023-04-09T13:08:47.391Z,25.40
2023-04-09T13:12:53.103Z,26.63
2023-04-09T13:16:58.946Z,27.40
2023-04-09T13:21:04.556Z,25.27
2023-04-09T13:25:10.312Z,26.57
2023-04-09T13:29:16.644Z,24.00
2023-04-09T13:33:22.419Z,25.47
2023-04-09T13:37:27.951Z,23.60
2023-04-09T13:41:36.739Z,29.00
2023-04-09T13:45:42.184Z,21.10
2023-04-09T13:49:47.723Z,20.63
2023-04-09T13:53:53.363Z,21.87
2023-04-09T13:57:58.918Z,33.10
2023-04-09T14:02:05.153Z,27.73
2023-04-09T14:06:10.949Z,30.73
2023-04-09T14:10:16.816Z,29.63
2023-04-09T14:14:22.440Z,31.60
2023-04-09T14:18:27.929Z,27.83
2023-04-09T14:22:33.487Z,28.43
2023-04-09T14:26:39.009Z,34.20
2023-04-09T14:30:44.597Z,28.23
2023-04-09T14:34:50.381Z,26.93
2023-04-09T14:38:57.744Z,34.00
2023-04-09T14:43:03.797Z,28.27
2023-04-09T14:47:09.275Z,29.00
2023-04-09T14:51:14.858Z,26.30
2023-04-09T14:55:21.117Z,24.53
2023-04-09T14:59:27.115Z,22.20
2023-04-09T15:03:32.838Z,25.53
2023-04-09T15:07:38.858Z,30.07
2023-04-09T15:11:44.304Z,29.73
2023-04-09T15:15:50.128Z,31.27
2023-04-09T15:19:55.711Z,29.20
2023-04-09T15:24:01.479Z,30.87
2023-04-09T15:28:07.237Z,28.00
2023-04-09T15:32:12.739Z,24.93
2023-04-09T15:36:18.497Z,27.70
2023-04-09T15:40:24.235Z,28.07
2023-04-09T15:44:29.753Z,29.50
2023-04-09T15:48:35.336Z,29.60
2023-04-09T15:52:41.234Z,29.70
2023-04-09T15:56:46.774Z,26.27
2023-04-09T16:00:52.411Z,31.87
2023-04-09T16:04:57.911Z,26.33
2023-04-09T16:09:03.896Z,20.63
2023-04-09T16:13:09.457Z,22.87
2023-04-09T16:17:15.010Z,21.93
2023-04-09T16:21:20.589Z,29.33
2023-04-09T16:25:26.180Z,18.67
2023-04-09T16:29:31.691Z,19.73
2023-04-09T16:33:37.242Z,18.43
2023-04-09T16:37:42.782Z,24.43
2023-04-09T16:41:49.358Z,17.40
2023-04-09T16:45:54.813Z,17.43
2023-04-09T16:50:00.398Z,16.23
2023-04-09T16:54:06.264Z,17.83
2023-04-09T16:58:11.823Z,19.80
2023-04-09T17:02:21.713Z,20.83
2023-04-09T17:06:27.428Z,20.40
2023-04-09T17:10:33.223Z,21.40
2023-04-09T17:14:41.761Z,18.10
2023-04-09T17:18:47.673Z,24.10
2023-04-09T17:22:53.391Z,16.70
2023-04-09T17:26:58.854Z,22.10
2023-04-09T17:31:12.233Z,18.30
2023-04-09T17:35:17.783Z,20.87
2023-04-09T17:39:29.282Z,19.10
2023-04-09T17:43:34.830Z,19.60
2023-04-09T17:47:40.793Z,16.60
2023-04-09T17:51:46.480Z,15.90
2023-04-09T17:55:52.079Z,17.75
2023-04-09T17:59:57.573Z,18.90
2023-04-09T18:04:03.389Z,21.60
2023-04-09T18:08:09.124Z,18.10
2023-04-09T18:12:14.675Z,18.43
2023-04-09T18:16:23.121Z,19.33
2023-04-09T18:20:28.911Z,18.67
2023-04-09T18:24:35.169Z,24.27
2023-04-09T18:28:40.910Z,21.70
2023-04-09T18:32:48.263Z,22.23
2023-04-09T18:36:54.828Z,22.03
2023-04-09T18:41:01.566Z,21.97
2023-04-09T18:45:08.063Z,24.53
2023-04-09T18:49:13.645Z,24.50
2023-04-09T18:53:19.120Z,31.37
2023-04-09T18:57:24.583Z,32.80
2023-04-09T19:01:30.191Z,22.10
2023-04-09T19:05:36.258Z,26.33
2023-04-09T19:09:41.833Z,22.43
2023-04-09T19:13:47.367Z,22.67
2023-04-09T19:17:53.835Z,20.23
2023-04-09T19:21:59.615Z,20.47
2023-04-09T19:26:05.625Z,23.60
2023-04-09T19:30:12.054Z,30.33
2023-04-09T19:34:17.588Z,21.90
2023-04-09T19:38:23.494Z,24.17
2023-04-09T19:42:29.023Z,25.93
2023-04-09T19:46:34.760Z,22.00
2023-04-09T19:50:41.220Z,28.50
2023-04-09T19:54:47.392Z,22.83
2023-04-09T19:58:53.072Z,28.83
2023-04-09T20:02:59.046Z,23.30
2023-04-09T20:07:04.564Z,26.93
2023-04-09T20:11:17.521Z,35.30
2023-04-09T20:15:23.069Z,29.40
2023-04-09T20:19:28.633Z,27.50
2023-04-09T20:23:34.096Z,30.37
2023-04-09T20:27:39.697Z,30.10
2023-04-09T20:31:45.248Z,31.97
2023-04-09T20:35:52.344Z,30.50
2023-04-09T20:39:59.811Z,28.87
2023-04-09T20:44:06.201Z,32.20
2023-04-09T20:48:12.065Z,28.30
2023-04-09T20:52:17.873Z,34.50
2023-04-09T20:56:23.778Z,31.60
2023-04-09T21:00:29.784Z,31.77
2023-04-09T21:04:35.366Z,30.13
2023-04-09T21:08:42.737Z,31.00
2023-04-09T21:12:48.424Z,29.67
2023-04-09T21:16:55.744Z,29.40
2023-04-09T21:21:02.387Z,28.40
2023-04-09T21:25:08.391Z,30.40
2023-04-09T21:29:13.864Z,28.80
2023-04-09T21:33:19.466Z,29.90
2023-04-09T21:37:24.948Z,33.37
2023-04-09T21:41:30.674Z,33.17
2023-04-09T21:45:36.600Z,23.10
2023-04-09T21:49:43.077Z,29.63
2023-04-09T21:53:48.601Z,27.27
2023-04-09T21:57:55.347Z,28.80
2023-04-09T22:02:00.869Z,33.43
2023-04-09T22:06:10.033Z,27.37
2023-04-09T22:10:15.602Z,27.17
2023-04-09T22:14:22.223Z,27.80
2023-04-09T22:18:27.789Z,28.10
2023-04-09T22:22:33.752Z,29.60
2023-04-09T22:26:40.910Z,28.50
2023-04-09T22:30:46.472Z,26.37
2023-04-09T22:34:52.677Z,32.87
2023-04-09T22:38:58.203Z,25.70
2023-04-09T22:43:03.742Z,30.90
2023-04-09T22:47:09.284Z,29.43
2023-04-09T22:51:15.618Z,25.97
2023-04-09T22:55:23.359Z,30.70
2023-04-09T22:59:37.301Z,29.50
2023-04-09T23:03:45.352Z,28.70
2023-04-09T23:07:51.330Z,26.13
2023-04-09T23:11:57.161Z,30.37
2023-04-09T23:16:10.552Z,26.90
2023-04-09T23:20:17.130Z,29.03
2023-04-09T23:24:22.785Z,22.33
2023-04-09T23:28:29.135Z,22.97
2023-04-09T23:32:34.898Z,24.90
2023-04-09T23:36:40.510Z,25.67
2023-04-09T23:40:49.286Z,27.50
2023-04-09T23:44:54.870Z,29.80
2023-04-09T23:49:00.552Z,31.80
2023-04-09T23:53:06.774Z,30.17
2023-04-09T23:57:12.475Z,30.37
